sensor_id;sensor_type;location;lat;lon;timestamp;P1;durP1;ratioP1;P2;durP2;ratioP2
55290;SDS011;41155;39.768;2.712;2023-01-26T00:00:47;6.38;;;6.07;;
55290;SDS011;41155;39.768;2.712;2023-01-26T00:03:12;6.07;;;5.88;;
55290;SDS011;41155;39.768;2.712;2023-01-26T00:05:39;5.57;;;5.38;;
55290;SDS011;41155;39.768;2.712;2023-01-26T00:08:05;8.25;;;7.85;;
55290;SDS011;41155;39.768;2.712;2023-01-26T00:10:33;7.30;;;7.00;;
55290;SDS011;41155;39.768;2.712;2023-01-26T00:13:00;5.95;;;5.75;;
55290;SDS011;41155;39.768;2.712;2023-01-26T00:15:26;5.85;;;5.65;;
55290;SDS011;41155;39.768;2.712;2023-01-26T00:17:51;9.60;;;8.70;;
55290;SDS011;41155;39.768;2.712;2023-01-26T00:20:17;6.32;;;6.07;;
55290;SDS011;41155;39.768;2.712;2023-01-26T00:22:42;6.28;;;6.07;;
55290;SDS011;41155;39.768;2.712;2023-01-26T00:25:08;5.68;;;5.47;;
55290;SDS011;41155;39.768;2.712;2023-01-26T00:27:34;5.57;;;5.38;;
55290;SDS011;41155;39.768;2.712;2023-01-26T00:30:00;5.28;;;5.18;;
55290;SDS011;41155;39.768;2.712;2023-01-26T00:32:25;5.60;;;5.40;;
55290;SDS011;41155;39.768;2.712;2023-01-26T00:34:51;6.88;;;6.60;;
55290;SDS011;41155;39.768;2.712;2023-01-26T00:37:16;7.15;;;6.85;;
55290;SDS011;41155;39.768;2.712;2023-01-26T00:39:42;5.50;;;5.32;;
55290;SDS011;41155;39.768;2.712;2023-01-26T00:42:09;5.53;;;5.32;;
55290;SDS011;41155;39.768;2.712;2023-01-26T00:44:38;6.07;;;5.88;;
55290;SDS011;41155;39.768;2.712;2023-01-26T00:47:05;7.03;;;6.72;;
55290;SDS011;41155;39.768;2.712;2023-01-26T00:49:31;6.35;;;6.15;;
55290;SDS011;41155;39.768;2.712;2023-01-26T00:51:57;6.15;;;5.95;;
55290;SDS011;41155;39.768;2.712;2023-01-26T00:54:23;5.70;;;5.50;;
55290;SDS011;41155;39.768;2.712;2023-01-26T00:56:49;5.70;;;5.50;;
55290;SDS011;41155;39.768;2.712;2023-01-26T00:59:14;7.65;;;7.20;;
55290;SDS011;41155;39.768;2.712;2023-01-26T01:01:40;5.90;;;5.70;;
55290;SDS011;41155;39.768;2.712;2023-01-26T01:04:06;5.60;;;5.43;;
55290;SDS011;41155;39.768;2.712;2023-01-26T01:06:31;6.18;;;5.90;;
55290;SDS011;41155;39.768;2.712;2023-01-26T01:08:57;9.77;;;6.30;;
55290;SDS011;41155;39.768;2.712;2023-01-26T01:11:22;5.88;;;5.68;;
55290;SDS011;41155;39.768;2.712;2023-01-26T01:13:47;5.60;;;5.40;;
55290;SDS011;41155;39.768;2.712;2023-01-26T01:16:14;5.07;;;4.97;;
55290;SDS011;41155;39.768;2.712;2023-01-26T01:18:40;6.20;;;5.78;;
55290;SDS011;41155;39.768;2.712;2023-01-26T01:21:06;6.35;;;6.05;;
55290;SDS011;41155;39.768;2.712;2023-01-26T01:23:33;6.50;;;6.30;;
55290;SDS011;41155;39.768;2.712;2023-01-26T01:25:59;5.55;;;5.35;;
55290;SDS011;41155;39.768;2.712;2023-01-26T01:28:25;9.75;;;9.07;;
55290;SDS011;41155;39.768;2.712;2023-01-26T01:30:51;6.07;;;5.88;;
55290;SDS011;41155;39.768;2.712;2023-01-26T01:33:16;5.45;;;5.32;;
55290;SDS011;41155;39.768;2.712;2023-01-26T01:35:42;5.90;;;5.70;;
55290;SDS011;41155;39.768;2.712;2023-01-26T01:38:07;7.95;;;7.45;;
55290;SDS011;41155;39.768;2.712;2023-01-26T01:40:33;6.10;;;5.90;;
55290;SDS011;41155;39.768;2.712;2023-01-26T01:42:58;5.50;;;5.30;;
55290;SDS011;41155;39.768;2.712;2023-01-26T01:47:49;6.50;;;6.30;;
55290;SDS011;41155;39.768;2.712;2023-01-26T01:50:17;5.72;;;5.53;;
55290;SDS011;41155;39.768;2.712;2023-01-26T01:52:43;6.28;;;5.93;;
55290;SDS011;41155;39.768;2.712;2023-01-26T01:55:11;5.63;;;5.43;;
55290;SDS011;41155;39.768;2.712;2023-01-26T01:57:57;5.78;;;5.57;;
55290;SDS011;41155;39.768;2.712;2023-01-26T02:00:25;6.60;;;6.30;;
55290;SDS011;41155;39.768;2.712;2023-01-26T02:03:02;6.05;;;5.85;;
55290;SDS011;41155;39.768;2.712;2023-01-26T02:08:29;6.45;;;6.15;;
55290;SDS011;41155;39.768;2.712;2023-01-26T02:11:02;5.70;;;5.50;;
55290;SDS011;41155;39.768;2.712;2023-01-26T02:13:31;5.70;;;5.50;;
55290;SDS011;41155;39.768;2.712;2023-01-26T02:16:01;5.50;;;5.32;;
55290;SDS011;41155;39.768;2.712;2023-01-26T02:18:27;5.65;;;5.45;;
55290;SDS011;41155;39.768;2.712;2023-01-26T02:20:59;5.60;;;5.40;;
55290;SDS011;41155;39.768;2.712;2023-01-26T02:26:03;6.18;;;5.97;;
55290;SDS011;41155;39.768;2.712;2023-01-26T02:28:30;5.72;;;5.53;;
55290;SDS011;41155;39.768;2.712;2023-01-26T02:30:56;8.85;;;8.40;;
55290;SDS011;41155;39.768;2.712;2023-01-26T02:33:27;6.47;;;6.20;;
55290;SDS011;41155;39.768;2.712;2023-01-26T02:35:54;5.72;;;5.53;;
55290;SDS011;41155;39.768;2.712;2023-01-26T02:38:20;8.07;;;7.57;;
55290;SDS011;41155;39.768;2.712;2023-01-26T02:40:49;6.47;;;6.25;;
55290;SDS011;41155;39.768;2.712;2023-01-26T02:43:24;5.88;;;5.68;;
55290;SDS011;41155;39.768;2.712;2023-01-26T02:45:51;6.00;;;5.80;;
55290;SDS011;41155;39.768;2.712;2023-01-26T02:48:17;6.38;;;5.97;;
55290;SDS011;41155;39.768;2.712;2023-01-26T02:51:01;6.95;;;6.65;;
55290;SDS011;41155;39.768;2.712;2023-01-26T02:53:27;5.43;;;5.30;;
55290;SDS011;41155;39.768;2.712;2023-01-26T02:55:53;5.68;;;5.47;;
55290;SDS011;41155;39.768;2.712;2023-01-26T02:58:18;7.18;;;6.82;;
55290;SDS011;41155;39.768;2.712;2023-01-26T03:00:43;6.03;;;5.82;;
55290;SDS011;41155;39.768;2.712;2023-01-26T03:03:13;17.10;;;7.65;;
55290;SDS011;41155;39.768;2.712;2023-01-26T03:05:40;6.45;;;6.25;;
55290;SDS011;41155;39.768;2.712;2023-01-26T03:08:06;6.05;;;5.85;;
55290;SDS011;41155;39.768;2.712;2023-01-26T03:10:34;7.40;;;7.10;;
55290;SDS011;41155;39.768;2.712;2023-01-26T03:13:00;5.90;;;5.70;;
55290;SDS011;41155;39.768;2.712;2023-01-26T03:15:25;27.23;;;7.85;;
55290;SDS011;41155;39.768;2.712;2023-01-26T03:18:13;6.13;;;5.93;;
55290;SDS011;41155;39.768;2.712;2023-01-26T03:20:59;6.30;;;6.10;;
55290;SDS011;41155;39.768;2.712;2023-01-26T03:23:44;10.32;;;6.65;;
55290;SDS011;41155;39.768;2.712;2023-01-26T03:26:28;5.80;;;5.60;;
55290;SDS011;41155;39.768;2.712;2023-01-26T03:29:12;6.90;;;6.60;;
55290;SDS011;41155;39.768;2.712;2023-01-26T03:31:38;6.40;;;6.20;;
55290;SDS011;41155;39.768;2.712;2023-01-26T03:34:03;6.60;;;6.30;;
55290;SDS011;41155;39.768;2.712;2023-01-26T03:36:29;6.32;;;6.10;;
55290;SDS011;41155;39.768;2.712;2023-01-26T03:38:55;6.10;;;5.90;;
55290;SDS011;41155;39.768;2.712;2023-01-26T03:41:20;6.30;;;6.10;;
55290;SDS011;41155;39.768;2.712;2023-01-26T03:44:04;6.43;;;6.22;;
55290;SDS011;41155;39.768;2.712;2023-01-26T03:46:48;6.68;;;6.47;;
55290;SDS011;41155;39.768;2.712;2023-01-26T03:49:32;8.73;;;8.13;;
55290;SDS011;41155;39.768;2.712;2023-01-26T03:52:16;6.25;;;6.05;;
55290;SDS011;41155;39.768;2.712;2023-01-26T03:55:00;6.25;;;6.05;;
55290;SDS011;41155;39.768;2.712;2023-01-26T03:57:44;7.22;;;6.93;;
55290;SDS011;41155;39.768;2.712;2023-01-26T04:00:09;43.58;;;7.75;;
55290;SDS011;41155;39.768;2.712;2023-01-26T04:02:35;6.82;;;6.53;;
55290;SDS011;41155;39.768;2.712;2023-01-26T04:08:04;7.22;;;6.93;;
55290;SDS011;41155;39.768;2.712;2023-01-26T04:10:47;13.55;;;7.07;;
55290;SDS011;41155;39.768;2.712;2023-01-26T04:13:15;6.00;;;5.80;;
55290;SDS011;41155;39.768;2.712;2023-01-26T04:16:00;5.95;;;5.75;;
55290;SDS011;41155;39.768;2.712;2023-01-26T04:18:43;6.40;;;6.18;;
55290;SDS011;41155;39.768;2.712;2023-01-26T04:21:27;6.60;;;6.40;;
55290;SDS011;41155;39.768;2.712;2023-01-26T04:23:58;6.20;;;6.00;;
55290;SDS011;41155;39.768;2.712;2023-01-26T04:26:25;6.25;;;6.05;;
55290;SDS011;41155;39.768;2.712;2023-01-26T04:28:59;6.72;;;6.43;;
55290;SDS011;41155;39.768;2.712;2023-01-26T04:31:26;7.72;;;7.43;;
55290;SDS011;41155;39.768;2.712;2023-01-26T04:33:51;7.60;;;7.30;;
55290;SDS011;41155;39.768;2.712;2023-01-26T04:36:17;7.75;;;7.25;;
55290;SDS011;41155;39.768;2.712;2023-01-26T04:38:42;7.90;;;7.50;;
55290;SDS011;41155;39.768;2.712;2023-01-26T04:41:08;6.78;;;6.57;;
55290;SDS011;41155;39.768;2.712;2023-01-26T04:43:33;7.25;;;6.95;;
55290;SDS011;41155;39.768;2.712;2023-01-26T04:46:00;6.72;;;6.53;;
55290;SDS011;41155;39.768;2.712;2023-01-26T04:48:28;6.70;;;6.50;;
55290;SDS011;41155;39.768;2.712;2023-01-26T04:50:54;7.57;;;7.28;;
55290;SDS011;41155;39.768;2.712;2023-01-26T04:53:21;6.30;;;6.10;;
55290;SDS011;41155;39.768;2.712;2023-01-26T04:55:47;6.30;;;6.10;;
55290;SDS011;41155;39.768;2.712;2023-01-26T04:58:13;8.05;;;7.57;;
55290;SDS011;41155;39.768;2.712;2023-01-26T05:00:38;7.65;;;7.35;;
55290;SDS011;41155;39.768;2.712;2023-01-26T05:03:04;7.15;;;6.85;;
55290;SDS011;41155;39.768;2.712;2023-01-26T05:05:29;7.85;;;7.45;;
55290;SDS011;41155;39.768;2.712;2023-01-26T05:07:55;6.90;;;6.60;;
55290;SDS011;41155;39.768;2.712;2023-01-26T05:10:20;9.23;;;8.82;;
55290;SDS011;41155;39.768;2.712;2023-01-26T05:12:46;6.90;;;6.70;;
55290;SDS011;41155;39.768;2.712;2023-01-26T05:15:11;8.43;;;8.02;;
55290;SDS011;41155;39.768;2.712;2023-01-26T05:17:37;39.22;;;8.38;;
55290;SDS011;41155;39.768;2.712;2023-01-26T05:20:02;7.47;;;7.18;;
55290;SDS011;41155;39.768;2.712;2023-01-26T05:22:28;9.57;;;9.00;;
55290;SDS011;41155;39.768;2.712;2023-01-26T05:24:54;9.40;;;8.45;;
55290;SDS011;41155;39.768;2.712;2023-01-26T05:27:20;6.80;;;6.60;;
55290;SDS011;41155;39.768;2.712;2023-01-26T05:29:45;7.70;;;7.40;;
55290;SDS011;41155;39.768;2.712;2023-01-26T05:32:11;7.95;;;7.65;;
55290;SDS011;41155;39.768;2.712;2023-01-26T05:34:37;7.10;;;6.80;;
55290;SDS011;41155;39.768;2.712;2023-01-26T05:37:03;7.15;;;6.85;;
55290;SDS011;41155;39.768;2.712;2023-01-26T05:39:28;8.85;;;8.18;;
55290;SDS011;41155;39.768;2.712;2023-01-26T05:41:54;6.82;;;6.60;;
55290;SDS011;41155;39.768;2.712;2023-01-26T05:44:21;7.88;;;7.55;;
55290;SDS011;41155;39.768;2.712;2023-01-26T05:46:47;8.95;;;8.35;;
55290;SDS011;41155;39.768;2.712;2023-01-26T05:49:12;7.72;;;7.43;;
55290;SDS011;41155;39.768;2.712;2023-01-26T05:51:38;6.40;;;6.20;;
55290;SDS011;41155;39.768;2.712;2023-01-26T05:54:04;8.10;;;7.70;;
55290;SDS011;41155;39.768;2.712;2023-01-26T05:56:29;8.77;;;7.63;;
55290;SDS011;41155;39.768;2.712;2023-01-26T05:58:55;6.90;;;6.70;;
55290;SDS011;41155;39.768;2.712;2023-01-26T06:01:20;8.15;;;7.80;;
55290;SDS011;41155;39.768;2.712;2023-01-26T06:03:45;7.32;;;7.03;;
55290;SDS011;41155;39.768;2.712;2023-01-26T06:06:11;6.85;;;6.63;;
55290;SDS011;41155;39.768;2.712;2023-01-26T06:08:36;8.80;;;8.27;;
55290;SDS011;41155;39.768;2.712;2023-01-26T06:11:02;8.05;;;7.75;;
55290;SDS011;41155;39.768;2.712;2023-01-26T06:13:28;8.27;;;7.90;;
55290;SDS011;41155;39.768;2.712;2023-01-26T06:15:53;9.20;;;8.43;;
55290;SDS011;41155;39.768;2.712;2023-01-26T06:18:19;7.13;;;6.82;;
55290;SDS011;41155;39.768;2.712;2023-01-26T06:20:45;7.35;;;7.00;;
55290;SDS011;41155;39.768;2.712;2023-01-26T06:23:10;8.73;;;8.32;;
55290;SDS011;41155;39.768;2.712;2023-01-26T06:25:39;10.10;;;8.65;;
55290;SDS011;41155;39.768;2.712;2023-01-26T06:28:05;7.40;;;7.10;;
55290;SDS011;41155;39.768;2.712;2023-01-26T06:30:31;7.25;;;6.95;;
55290;SDS011;41155;39.768;2.712;2023-01-26T06:32:58;7.25;;;6.95;;
55290;SDS011;41155;39.768;2.712;2023-01-26T06:35:24;7.63;;;7.32;;
55290;SDS011;41155;39.768;2.712;2023-01-26T06:37:50;8.05;;;7.75;;
55290;SDS011;41155;39.768;2.712;2023-01-26T06:40:16;8.38;;;7.82;;
55290;SDS011;41155;39.768;2.712;2023-01-26T06:42:46;7.60;;;7.30;;
55290;SDS011;41155;39.768;2.712;2023-01-26T06:45:13;8.52;;;8.02;;
55290;SDS011;41155;39.768;2.712;2023-01-26T06:47:43;7.63;;;7.28;;
55290;SDS011;41155;39.768;2.712;2023-01-26T06:50:13;6.40;;;6.20;;
55290;SDS011;41155;39.768;2.712;2023-01-26T06:52:40;6.80;;;6.60;;
55290;SDS011;41155;39.768;2.712;2023-01-26T06:55:14;7.25;;;6.95;;
55290;SDS011;41155;39.768;2.712;2023-01-26T06:57:43;7.22;;;6.93;;
55290;SDS011;41155;39.768;2.712;2023-01-26T07:00:08;9.50;;;9.00;;
55290;SDS011;41155;39.768;2.712;2023-01-26T07:02:36;8.32;;;7.95;;
55290;SDS011;41155;39.768;2.712;2023-01-26T07:05:01;6.82;;;6.63;;
55290;SDS011;41155;39.768;2.712;2023-01-26T07:07:27;14.55;;;11.13;;
55290;SDS011;41155;39.768;2.712;2023-01-26T07:09:53;7.20;;;6.90;;
55290;SDS011;41155;39.768;2.712;2023-01-26T07:12:18;7.60;;;7.30;;
55290;SDS011;41155;39.768;2.712;2023-01-26T07:14:44;11.43;;;10.60;;
55290;SDS011;41155;39.768;2.712;2023-01-26T07:17:10;7.95;;;7.65;;
55290;SDS011;41155;39.768;2.712;2023-01-26T07:19:35;8.35;;;7.88;;
55290;SDS011;41155;39.768;2.712;2023-01-26T07:22:01;13.57;;;12.80;;
55290;SDS011;41155;39.768;2.712;2023-01-26T07:24:27;8.13;;;7.82;;
55290;SDS011;41155;39.768;2.712;2023-01-26T07:26:53;7.82;;;7.53;;
55290;SDS011;41155;39.768;2.712;2023-01-26T07:29:20;9.60;;;9.10;;
55290;SDS011;41155;39.768;2.712;2023-01-26T07:31:45;8.73;;;8.32;;
55290;SDS011;41155;39.768;2.712;2023-01-26T07:34:11;11.20;;;10.52;;
55290;SDS011;41155;39.768;2.712;2023-01-26T07:36:37;10.60;;;9.88;;
55290;SDS011;41155;39.768;2.712;2023-01-26T07:39:03;7.70;;;7.40;;
55290;SDS011;41155;39.768;2.712;2023-01-26T07:41:30;8.68;;;8.23;;
55290;SDS011;41155;39.768;2.712;2023-01-26T07:43:56;7.90;;;7.60;;
55290;SDS011;41155;39.768;2.712;2023-01-26T07:46:21;8.48;;;7.97;;
55290;SDS011;41155;39.768;2.712;2023-01-26T07:48:48;9.57;;;8.80;;
55290;SDS011;41155;39.768;2.712;2023-01-26T07:51:14;8.93;;;8.43;;
55290;SDS011;41155;39.768;2.712;2023-01-26T07:53:39;8.43;;;7.93;;
55290;SDS011;41155;39.768;2.712;2023-01-26T07:56:11;7.03;;;6.78;;
55290;SDS011;41155;39.768;2.712;2023-01-26T07:58:38;10.05;;;9.48;;
55290;SDS011;41155;39.768;2.712;2023-01-26T08:01:08;7.32;;;7.03;;
55290;SDS011;41155;39.768;2.712;2023-01-26T08:03:38;9.40;;;8.88;;
55290;SDS011;41155;39.768;2.712;2023-01-26T08:06:05;9.48;;;8.95;;
55290;SDS011;41155;39.768;2.712;2023-01-26T08:08:32;8.43;;;7.82;;
55290;SDS011;41155;39.768;2.712;2023-01-26T08:10:58;8.38;;;7.70;;
55290;SDS011;41155;39.768;2.712;2023-01-26T08:13:25;6.53;;;6.30;;
55290;SDS011;41155;39.768;2.712;2023-01-26T08:15:54;8.45;;;7.95;;
55290;SDS011;41155;39.768;2.712;2023-01-26T08:18:19;7.40;;;7.10;;
55290;SDS011;41155;39.768;2.712;2023-01-26T08:20:51;7.18;;;6.88;;
55290;SDS011;41155;39.768;2.712;2023-01-26T08:23:18;9.13;;;8.57;;
55290;SDS011;41155;39.768;2.712;2023-01-26T08:25:44;9.93;;;8.80;;
55290;SDS011;41155;39.768;2.712;2023-01-26T08:28:09;7.45;;;7.15;;
55290;SDS011;41155;39.768;2.712;2023-01-26T08:30:35;10.15;;;8.10;;
55290;SDS011;41155;39.768;2.712;2023-01-26T08:33:01;7.38;;;7.07;;
55290;SDS011;41155;39.768;2.712;2023-01-26T08:35:27;10.88;;;10.27;;
55290;SDS011;41155;39.768;2.712;2023-01-26T08:37:53;7.95;;;7.65;;
55290;SDS011;41155;39.768;2.712;2023-01-26T08:40:18;9.52;;;9.02;;
55290;SDS011;41155;39.768;2.712;2023-01-26T08:42:43;9.18;;;8.77;;
55290;SDS011;41155;39.768;2.712;2023-01-26T08:45:09;6.97;;;6.68;;
55290;SDS011;41155;39.768;2.712;2023-01-26T08:47:35;11.25;;;10.52;;
55290;SDS011;41155;39.768;2.712;2023-01-26T08:50:00;7.68;;;7.38;;
55290;SDS011;41155;39.768;2.712;2023-01-26T08:52:26;8.45;;;8.05;;
55290;SDS011;41155;39.768;2.712;2023-01-26T08:54:51;8.82;;;8.43;;
55290;SDS011;41155;39.768;2.712;2023-01-26T08:57:17;10.23;;;9.50;;
55290;SDS011;41155;39.768;2.712;2023-01-26T08:59:42;8.90;;;8.38;;
55290;SDS011;41155;39.768;2.712;2023-01-26T09:02:08;8.65;;;7.90;;
55290;SDS011;41155;39.768;2.712;2023-01-26T09:04:35;10.02;;;9.30;;
55290;SDS011;41155;39.768;2.712;2023-01-26T09:07:00;8.68;;;8.20;;
55290;SDS011;41155;39.768;2.712;2023-01-26T09:09:26;7.40;;;6.90;;
55290;SDS011;41155;39.768;2.712;2023-01-26T09:11:54;8.90;;;8.43;;
55290;SDS011;41155;39.768;2.712;2023-01-26T09:14:20;9.35;;;8.70;;
55290;SDS011;41155;39.768;2.712;2023-01-26T09:16:46;9.63;;;9.10;;
55290;SDS011;41155;39.768;2.712;2023-01-26T09:19:12;11.30;;;7.25;;
55290;SDS011;41155;39.768;2.712;2023-01-26T09:21:37;7.88;;;7.45;;
55290;SDS011;41155;39.768;2.712;2023-01-26T09:24:03;8.48;;;8.00;;
55290;SDS011;41155;39.768;2.712;2023-01-26T09:26:29;7.15;;;6.80;;
55290;SDS011;41155;39.768;2.712;2023-01-26T09:28:55;9.52;;;8.95;;
55290;SDS011;41155;39.768;2.712;2023-01-26T09:31:20;6.22;;;6.03;;
55290;SDS011;41155;39.768;2.712;2023-01-26T09:33:48;10.95;;;9.85;;
55290;SDS011;41155;39.768;2.712;2023-01-26T09:36:14;6.15;;;5.95;;
55290;SDS011;41155;39.768;2.712;2023-01-26T09:38:40;7.05;;;6.55;;
55290;SDS011;41155;39.768;2.712;2023-01-26T09:43:38;10.40;;;9.65;;
55290;SDS011;41155;39.768;2.712;2023-01-26T09:46:21;11.48;;;10.40;;
55290;SDS011;41155;39.768;2.712;2023-01-26T09:56:54;9.80;;;9.23;;
55290;SDS011;41155;39.768;2.712;2023-01-26T09:59:40;8.85;;;8.25;;
55290;SDS011;41155;39.768;2.712;2023-01-26T10:04:55;9.30;;;8.73;;
55290;SDS011;41155;39.768;2.712;2023-01-26T10:07:26;37.50;;;15.45;;
55290;SDS011;41155;39.768;2.712;2023-01-26T10:09:52;7.57;;;7.00;;
55290;SDS011;41155;39.768;2.712;2023-01-26T10:12:20;11.38;;;6.70;;
55290;SDS011;41155;39.768;2.712;2023-01-26T10:17:30;6.38;;;6.07;;
55290;SDS011;41155;39.768;2.712;2023-01-26T10:20:44;3.67;;;3.58;;
55290;SDS011;41155;39.768;2.712;2023-01-26T10:23:35;3.03;;;3.03;;
55290;SDS011;41155;39.768;2.712;2023-01-26T10:26:12;32.85;;;5.60;;
55290;SDS011;41155;39.768;2.712;2023-01-26T10:28:44;4.80;;;4.57;;
55290;SDS011;41155;39.768;2.712;2023-01-26T10:31:19;3.88;;;3.80;;
55290;SDS011;41155;39.768;2.712;2023-01-26T10:33:48;4.85;;;4.65;;
55290;SDS011;41155;39.768;2.712;2023-01-26T10:36:19;2.70;;;2.70;;
55290;SDS011;41155;39.768;2.712;2023-01-26T10:38:45;3.35;;;3.25;;
55290;SDS011;41155;39.768;2.712;2023-01-26T10:43:50;6.05;;;3.55;;
55290;SDS011;41155;39.768;2.712;2023-01-26T10:46:23;3.50;;;3.50;;
55290;SDS011;41155;39.768;2.712;2023-01-26T10:48:58;4.50;;;4.40;;
55290;SDS011;41155;39.768;2.712;2023-01-26T10:52:03;4.10;;;4.00;;
55290;SDS011;41155;39.768;2.712;2023-01-26T10:54:40;3.80;;;3.80;;
55290;SDS011;41155;39.768;2.712;2023-01-26T10:57:15;4.70;;;4.53;;
55290;SDS011;41155;39.768;2.712;2023-01-26T11:02:48;12.63;;;5.15;;
55290;SDS011;41155;39.768;2.712;2023-01-26T11:07:46;38.92;;;11.43;;
55290;SDS011;41155;39.768;2.712;2023-01-26T11:13:37;31.08;;;13.23;;
55290;SDS011;41155;39.768;2.712;2023-01-26T11:15:47;28.45;;;14.27;;
55290;SDS011;41155;39.768;2.712;2023-01-26T11:36:47;45.25;;;26.50;;
55290;SDS011;41155;39.768;2.712;2023-01-26T11:39:27;55.50;;;23.40;;
55290;SDS011;41155;39.768;2.712;2023-01-26T11:47:51;42.42;;;25.63;;
55290;SDS011;41155;39.768;2.712;2023-01-26T11:58:19;40.15;;;19.70;;
55290;SDS011;41155;39.768;2.712;2023-01-26T12:00:59;39.20;;;20.55;;
55290;SDS011;41155;39.768;2.712;2023-01-26T12:06:13;29.60;;;21.00;;
55290;SDS011;41155;39.768;2.712;2023-01-26T12:09:09;32.70;;;19.35;;
55290;SDS011;41155;39.768;2.712;2023-01-26T12:11:38;36.72;;;17.10;;
55290;SDS011;41155;39.768;2.712;2023-01-26T12:16:51;26.73;;;16.45;;
55290;SDS011;41155;39.768;2.712;2023-01-26T12:21:53;27.38;;;12.50;;
55290;SDS011;41155;39.768;2.712;2023-01-26T12:24:34;15.65;;;12.93;;
55290;SDS011;41155;39.768;2.712;2023-01-26T12:27:07;26.17;;;16.63;;
55290;SDS011;41155;39.768;2.712;2023-01-26T12:29:46;25.17;;;14.38;;
55290;SDS011;41155;39.768;2.712;2023-01-26T12:32:13;28.75;;;12.30;;
55290;SDS011;41155;39.768;2.712;2023-01-26T12:34:40;21.55;;;11.25;;
55290;SDS011;41155;39.768;2.712;2023-01-26T12:45:23;22.95;;;14.23;;
55290;SDS011;41155;39.768;2.712;2023-01-26T12:47:55;28.95;;;15.60;;
55290;SDS011;41155;39.768;2.712;2023-01-26T12:50:36;16.35;;;13.80;;
55290;SDS011;41155;39.768;2.712;2023-01-26T12:53:06;30.63;;;20.23;;
55290;SDS011;41155;39.768;2.712;2023-01-26T12:55:35;28.55;;;17.70;;
55290;SDS011;41155;39.768;2.712;2023-01-26T13:00:36;29.08;;;15.07;;
55290;SDS011;41155;39.768;2.712;2023-01-26T13:03:12;22.42;;;15.55;;
55290;SDS011;41155;39.768;2.712;2023-01-26T13:05:57;19.10;;;14.15;;
55290;SDS011;41155;39.768;2.712;2023-01-26T13:10:55;41.20;;;16.85;;
55290;SDS011;41155;39.768;2.712;2023-01-26T13:18:57;30.17;;;12.35;;
55290;SDS011;41155;39.768;2.712;2023-01-26T13:31:49;29.45;;;14.82;;
55290;SDS011;41155;39.768;2.712;2023-01-26T13:34:15;25.85;;;13.27;;
55290;SDS011;41155;39.768;2.712;2023-01-26T13:36:45;30.27;;;14.98;;
55290;SDS011;41155;39.768;2.712;2023-01-26T13:39:33;25.77;;;14.48;;
55290;SDS011;41155;39.768;2.712;2023-01-26T13:42:01;35.13;;;13.88;;
55290;SDS011;41155;39.768;2.712;2023-01-26T13:44:40;29.40;;;12.80;;
55290;SDS011;41155;39.768;2.712;2023-01-26T13:47:12;33.40;;;13.10;;
55290;SDS011;41155;39.768;2.712;2023-01-26T13:49:45;28.13;;;15.10;;
55290;SDS011;41155;39.768;2.712;2023-01-26T13:52:20;36.20;;;17.63;;
55290;SDS011;41155;39.768;2.712;2023-01-26T13:54:49;20.73;;;12.77;;
55290;SDS011;41155;39.768;2.712;2023-01-26T13:57:20;33.25;;;13.05;;
55290;SDS011;41155;39.768;2.712;2023-01-26T13:59:49;29.65;;;15.05;;
55290;SDS011;41155;39.768;2.712;2023-01-26T14:02:20;21.00;;;13.60;;
55290;SDS011;41155;39.768;2.712;2023-01-26T14:04:54;31.00;;;19.23;;
55290;SDS011;41155;39.768;2.712;2023-01-26T14:10:17;30.00;;;14.80;;
55290;SDS011;41155;39.768;2.712;2023-01-26T14:13:02;33.92;;;17.15;;
55290;SDS011;41155;39.768;2.712;2023-01-26T14:15:29;28.88;;;17.67;;
55290;SDS011;41155;39.768;2.712;2023-01-26T14:18:03;21.58;;;17.00;;
55290;SDS011;41155;39.768;2.712;2023-01-26T14:20:36;30.90;;;21.77;;
55290;SDS011;41155;39.768;2.712;2023-01-26T14:28:16;37.88;;;34.28;;
55290;SDS011;41155;39.768;2.712;2023-01-26T14:30:50;40.63;;;34.08;;
55290;SDS011;41155;39.768;2.712;2023-01-26T14:33:16;44.90;;;24.83;;
55290;SDS011;41155;39.768;2.712;2023-01-26T14:35:53;79.45;;;24.70;;
55290;SDS011;41155;39.768;2.712;2023-01-26T14:38:20;31.25;;;22.95;;
55290;SDS011;41155;39.768;2.712;2023-01-26T14:40:50;35.10;;;27.50;;
55290;SDS011;41155;39.768;2.712;2023-01-26T14:43:17;59.88;;;22.77;;
55290;SDS011;41155;39.768;2.712;2023-01-26T14:45:45;27.20;;;17.95;;
55290;SDS011;41155;39.768;2.712;2023-01-26T14:48:17;23.20;;;17.50;;
55290;SDS011;41155;39.768;2.712;2023-01-26T14:50:46;27.83;;;16.77;;
55290;SDS011;41155;39.768;2.712;2023-01-26T14:53:19;40.92;;;29.58;;
55290;SDS011;41155;39.768;2.712;2023-01-26T14:55:47;26.67;;;19.50;;
55290;SDS011;41155;39.768;2.712;2023-01-26T14:58:14;37.88;;;31.70;;
55290;SDS011;41155;39.768;2.712;2023-01-26T15:00:49;31.05;;;25.55;;
55290;SDS011;41155;39.768;2.712;2023-01-26T15:03:26;30.52;;;26.38;;
55290;SDS011;41155;39.768;2.712;2023-01-26T15:06:14;22.27;;;18.10;;
55290;SDS011;41155;39.768;2.712;2023-01-26T15:11:39;37.20;;;23.23;;
55290;SDS011;41155;39.768;2.712;2023-01-26T15:16:51;38.35;;;24.10;;
55290;SDS011;41155;39.768;2.712;2023-01-26T15:19:21;44.20;;;28.63;;
55290;SDS011;41155;39.768;2.712;2023-01-26T15:21:48;43.30;;;31.20;;
55290;SDS011;41155;39.768;2.712;2023-01-26T15:24:14;43.88;;;29.65;;
55290;SDS011;41155;39.768;2.712;2023-01-26T15:26:40;41.20;;;24.88;;
55290;SDS011;41155;39.768;2.712;2023-01-26T15:29:27;32.38;;;22.90;;
55290;SDS011;41155;39.768;2.712;2023-01-26T15:31:55;35.03;;;22.42;;
55290;SDS011;41155;39.768;2.712;2023-01-26T15:34:29;32.25;;;28.55;;
55290;SDS011;41155;39.768;2.712;2023-01-26T15:40:03;41.42;;;22.63;;
55290;SDS011;41155;39.768;2.712;2023-01-26T15:42:29;22.85;;;18.25;;
55290;SDS011;41155;39.768;2.712;2023-01-26T15:44:56;36.90;;;24.75;;
55290;SDS011;41155;39.768;2.712;2023-01-26T15:47:21;78.43;;;42.95;;
55290;SDS011;41155;39.768;2.712;2023-01-26T15:49:47;32.40;;;26.75;;
55290;SDS011;41155;39.768;2.712;2023-01-26T15:52:13;30.58;;;23.45;;
55290;SDS011;41155;39.768;2.712;2023-01-26T15:54:40;32.90;;;26.63;;
55290;SDS011;41155;39.768;2.712;2023-01-26T15:57:12;35.33;;;25.15;;
55290;SDS011;41155;39.768;2.712;2023-01-26T15:59:38;29.95;;;19.88;;
55290;SDS011;41155;39.768;2.712;2023-01-26T16:02:14;30.38;;;19.92;;
55290;SDS011;41155;39.768;2.712;2023-01-26T16:04:41;27.50;;;20.98;;
55290;SDS011;41155;39.768;2.712;2023-01-26T16:07:16;42.38;;;26.40;;
55290;SDS011;41155;39.768;2.712;2023-01-26T16:09:43;42.28;;;30.10;;
55290;SDS011;41155;39.768;2.712;2023-01-26T16:12:18;128.95;;;89.78;;
55290;SDS011;41155;39.768;2.712;2023-01-26T16:14:43;72.50;;;51.33;;
55290;SDS011;41155;39.768;2.712;2023-01-26T16:17:12;128.02;;;78.15;;
55290;SDS011;41155;39.768;2.712;2023-01-26T16:19:39;149.82;;;91.30;;
55290;SDS011;41155;39.768;2.712;2023-01-26T16:22:07;172.23;;;102.97;;
55290;SDS011;41155;39.768;2.712;2023-01-26T16:24:34;169.80;;;108.03;;
55290;SDS011;41155;39.768;2.712;2023-01-26T16:26:59;62.85;;;42.05;;
55290;SDS011;41155;39.768;2.712;2023-01-26T16:29:25;43.65;;;27.85;;
55290;SDS011;41155;39.768;2.712;2023-01-26T16:31:50;96.78;;;78.13;;
55290;SDS011;41155;39.768;2.712;2023-01-26T16:34:16;127.45;;;85.50;;
55290;SDS011;41155;39.768;2.712;2023-01-26T16:36:42;64.88;;;56.35;;
55290;SDS011;41155;39.768;2.712;2023-01-26T16:39:07;36.97;;;27.15;;
55290;SDS011;41155;39.768;2.712;2023-01-26T16:41:33;44.25;;;31.80;;
55290;SDS011;41155;39.768;2.712;2023-01-26T16:43:59;50.38;;;36.17;;
55290;SDS011;41155;39.768;2.712;2023-01-26T16:46:26;47.72;;;30.48;;
55290;SDS011;41155;39.768;2.712;2023-01-26T16:48:52;57.10;;;38.17;;
55290;SDS011;41155;39.768;2.712;2023-01-26T16:51:23;46.67;;;34.20;;
55290;SDS011;41155;39.768;2.712;2023-01-26T16:53:51;55.22;;;39.25;;